createdAt,value
2018-05-25T00:00:55.430Z,101462.74
2018-05-25T00:03:22.919Z,101457.48
2018-05-25T00:05:50.439Z,101463.27
2018-05-25T00:08:17.970Z,101461.86
2018-05-25T00:10:45.479Z,101456.05
2018-05-25T00:13:12.972Z,101453.13
2018-05-25T00:15:40.477Z,101451.74
2018-05-25T00:18:07.982Z,101455.18
2018-05-25T00:20:35.485Z,101460.19
2018-05-25T00:23:02.939Z,101466.78
2018-05-25T00:25:30.534Z,101466.38
2018-05-25T00:27:58.020Z,101464.75
2018-05-25T00:30:25.476Z,101463.45
2018-05-25T00:32:52.980Z,101462.33
2018-05-25T00:35:20.552Z,101465.08
2018-05-25T00:37:48.027Z,101465.22
2018-05-25T00:40:15.524Z,101464.22
2018-05-25T00:42:43.047Z,101461.29
2018-05-25T00:45:10.613Z,101460.72
2018-05-25T00:47:38.125Z,101459.63
2018-05-25T00:50:05.656Z,101457.27
2018-05-25T00:52:33.151Z,101459.03
2018-05-25T00:55:12.800Z,101455.58
2018-05-25T00:57:40.278Z,101455.95
2018-05-25T01:00:07.900Z,101462.92
2018-05-25T01:02:35.434Z,101460.29
2018-05-25T01:05:02.908Z,101461.36
2018-05-25T01:07:30.421Z,101459.39
2018-05-25T01:09:57.934Z,101457.34
2018-05-25T01:12:25.406Z,101459.66
2018-05-25T01:14:52.893Z,101462.89
2018-05-25T01:17:20.385Z,101460.67
2018-05-25T01:19:47.863Z,101465.89
2018-05-25T01:22:15.349Z,101465.42
2018-05-25T01:24:42.815Z,101462.66
2018-05-25T01:27:10.333Z,101464.28
2018-05-25T01:29:37.803Z,101459.70
2018-05-25T01:32:05.290Z,101460.22
2018-05-25T01:34:32.886Z,101457.59
2018-05-25T01:37:00.377Z,101456.06
2018-05-25T01:39:27.876Z,101460.55
2018-05-25T01:41:55.378Z,101456.17
2018-05-25T01:44:22.861Z,101458.34
2018-05-25T01:46:50.378Z,101458.58
2018-05-25T01:49:17.864Z,101455.41
2018-05-25T01:51:45.347Z,101454.80
2018-05-25T01:54:12.958Z,101457.68
2018-05-25T01:56:40.467Z,101455.56
2018-05-25T01:59:07.950Z,101451.73
2018-05-25T02:01:35.395Z,101457.98
2018-05-25T02:04:02.921Z,101461.92
2018-05-25T02:06:30.381Z,101467.52
2018-05-25T02:08:57.874Z,101462.28
2018-05-25T02:11:25.361Z,101468.00
2018-05-25T02:13:52.868Z,101464.85
2018-05-25T02:16:20.345Z,101461.39
2018-05-25T02:18:47.824Z,101460.41
2018-05-25T02:21:15.402Z,101463.77
2018-05-25T02:23:42.884Z,101464.02
2018-05-25T02:26:10.373Z,101459.46
2018-05-25T02:28:37.928Z,101459.16
2018-05-25T02:31:05.395Z,101456.80
2018-05-25T02:33:32.908Z,101456.36
2018-05-25T02:36:00.413Z,101454.52
2018-05-25T02:38:27.926Z,101442.84
2018-05-25T02:40:55.443Z,101450.51
2018-05-25T02:43:23.018Z,101454.14
2018-05-25T02:45:50.483Z,101450.41
2018-05-25T02:48:18.014Z,101445.86
2018-05-25T02:50:45.501Z,101446.23
2018-05-25T02:53:13.022Z,101443.70
2018-05-25T02:55:40.576Z,101440.11
2018-05-25T02:58:08.032Z,101440.32
2018-05-25T03:00:35.509Z,101442.23
2018-05-25T03:03:03.022Z,101437.58
2018-05-25T03:05:30.509Z,101444.84
2018-05-25T03:07:57.979Z,101454.56
2018-05-25T03:10:25.465Z,101439.20
2018-05-25T03:12:52.940Z,101439.84
2018-05-25T03:15:20.396Z,101436.66
2018-05-25T03:17:47.877Z,101443.02
2018-05-25T03:20:15.347Z,101436.73
2018-05-25T03:22:42.890Z,101441.66
2018-05-25T03:25:10.390Z,101434.81
2018-05-25T03:27:37.887Z,101433.30
2018-05-25T03:30:05.385Z,101433.30
2018-05-25T03:32:32.894Z,101438.98
2018-05-25T03:35:00.437Z,101435.12
2018-05-25T03:37:27.967Z,101436.86
2018-05-25T03:39:55.445Z,101437.17
2018-05-25T03:42:22.981Z,101440.77
2018-05-25T03:44:50.499Z,101440.25
2018-05-25T03:47:18.007Z,101443.44
2018-05-25T03:49:45.520Z,101444.47
2018-05-25T03:52:13.021Z,101447.95
2018-05-25T03:54:40.495Z,101445.55
2018-05-25T03:57:07.961Z,101449.08
2018-05-25T03:59:47.400Z,101448.58
2018-05-25T04:02:14.907Z,101457.97
2018-05-25T04:04:42.377Z,101465.45
2018-05-25T04:07:09.892Z,101462.62
2018-05-25T04:09:37.372Z,101466.07
2018-05-25T04:12:04.878Z,101466.61
2018-05-25T04:14:32.407Z,101467.34
2018-05-25T04:16:59.906Z,101467.20
2018-05-25T04:19:27.400Z,101468.25
2018-05-25T04:21:54.867Z,101471.51
2018-05-25T04:24:22.383Z,101467.90
2018-05-25T04:26:49.875Z,101476.02
2018-05-25T04:29:17.366Z,101476.44
2018-05-25T04:31:44.861Z,101481.45
2018-05-25T04:34:12.388Z,101469.00
2018-05-25T04:36:39.931Z,101471.06
2018-05-25T04:39:07.401Z,101471.72
2018-05-25T04:41:34.959Z,101477.43
2018-05-25T04:44:02.478Z,101468.22
2018-05-25T04:46:29.944Z,101472.62
2018-05-25T04:48:57.473Z,101468.73
2018-05-25T04:51:24.937Z,101477.07
2018-05-25T04:53:52.443Z,101468.27
2018-05-25T04:56:19.954Z,101471.75
2018-05-25T04:58:47.433Z,101473.81
2018-05-25T05:01:14.917Z,101477.07
2018-05-25T05:03:42.389Z,101475.64
2018-05-25T05:06:09.870Z,101465.39
2018-05-25T05:08:37.417Z,101469.73
2018-05-25T05:11:04.931Z,101466.67
2018-05-25T05:13:32.399Z,101468.83
2018-05-25T05:15:59.909Z,101466.90
2018-05-25T05:18:27.397Z,101471.63
2018-05-25T05:20:54.862Z,101471.20
2018-05-25T05:23:22.345Z,101469.19
2018-05-25T05:25:49.885Z,101469.12
2018-05-25T05:28:17.343Z,101470.75
2018-05-25T05:30:44.939Z,101476.44
2018-05-25T05:33:12.412Z,101468.72
2018-05-25T05:35:39.893Z,101474.39
2018-05-25T05:38:07.395Z,101472.25
2018-05-25T05:40:34.935Z,101468.15
2018-05-25T05:43:02.341Z,101481.64
2018-05-25T05:45:29.839Z,101478.44
2018-05-25T05:47:57.323Z,101470.65
2018-05-25T05:50:24.813Z,101474.17
2018-05-25T05:52:52.307Z,101476.45
2018-05-25T05:55:19.776Z,101468.51
2018-05-25T05:57:47.273Z,101463.37
2018-05-25T06:00:14.856Z,101464.58
2018-05-25T06:02:42.366Z,101466.31
2018-05-25T06:05:09.831Z,101459.34
2018-05-25T06:07:37.292Z,101458.52
2018-05-25T06:10:04.767Z,101456.03
2018-05-25T06:12:32.264Z,101457.43
2018-05-25T06:14:59.766Z,101451.34
2018-05-25T06:17:27.229Z,101456.03
2018-05-25T06:19:54.758Z,101455.35
2018-05-25T06:22:22.232Z,101450.41
2018-05-25T06:24:49.807Z,101458.52
2018-05-25T06:27:17.329Z,101450.50
2018-05-25T06:29:44.993Z,101451.77
2018-05-25T06:32:12.517Z,101450.67
2018-05-25T06:34:39.968Z,101450.53
2018-05-25T06:37:07.463Z,101450.92
2018-05-25T06:39:35.057Z,101449.66
2018-05-25T06:42:02.545Z,101448.39
2018-05-25T06:44:30.017Z,101455.02
2018-05-25T06:46:57.487Z,101455.60
2018-05-25T06:49:24.977Z,101448.15
2018-05-25T06:51:52.677Z,101450.11
2018-05-25T06:54:20.151Z,101454.16
2018-05-25T06:56:47.616Z,101451.47
2018-05-25T06:59:15.319Z,101437.07
2018-05-25T07:01:42.941Z,101443.37
2018-05-25T07:04:10.482Z,101447.60
2018-05-25T07:06:38.072Z,101442.78
2018-05-25T07:09:06.415Z,101445.92
2018-05-25T07:11:33.911Z,101445.67
2018-05-25T07:14:01.478Z,101445.47
2018-05-25T07:16:28.998Z,101437.08
2018-05-25T07:18:56.512Z,101445.33
2018-05-25T07:21:24.069Z,101442.95
2018-05-25T07:23:51.649Z,101443.48
2018-05-25T07:26:19.214Z,101443.90
2018-05-25T07:28:46.746Z,101437.70
2018-05-25T07:31:14.408Z,101442.33
2018-05-25T07:33:41.945Z,101440.02
2018-05-25T07:36:09.497Z,101431.00
2018-05-25T07:38:37.171Z,101440.83
2018-05-25T07:41:04.782Z,101445.78
2018-05-25T07:43:32.320Z,101440.73
2018-05-25T07:45:59.872Z,101449.67
2018-05-25T07:48:27.361Z,101445.92
2018-05-25T07:50:54.895Z,101461.28
2018-05-25T07:53:22.477Z,101445.55
2018-05-25T07:55:49.996Z,101446.66
2018-05-25T07:58:17.648Z,101455.42
2018-05-25T08:00:45.317Z,101452.41
2018-05-25T08:03:12.958Z,101449.80
2018-05-25T08:05:40.555Z,101446.13
2018-05-25T08:08:08.097Z,101443.05
2018-05-25T08:10:35.669Z,101444.62
2018-05-25T08:13:03.239Z,101442.30
2018-05-25T08:15:30.834Z,101449.33
2018-05-25T08:17:58.415Z,101448.64
2018-05-25T08:20:26.007Z,101457.37
2018-05-25T08:22:53.683Z,101458.95
2018-05-25T08:25:21.196Z,101444.96
2018-05-25T08:27:48.719Z,101446.74
2018-05-25T08:30:16.306Z,101448.65
2018-05-25T08:32:43.790Z,101451.95
2018-05-25T08:35:11.300Z,101447.22
2018-05-25T08:37:39.000Z,101447.19
2018-05-25T08:40:06.575Z,101450.73
2018-05-25T08:42:34.168Z,101449.84
2018-05-25T08:45:01.709Z,101448.56
2018-05-25T08:47:29.265Z,101441.19
2018-05-25T08:49:56.853Z,101446.34
2018-05-25T08:52:24.360Z,101444.34
2018-05-25T08:54:52.158Z,101446.11
2018-05-25T08:57:19.778Z,101439.20
2018-05-25T08:59:47.357Z,101440.39
2018-05-25T09:02:14.965Z,101435.84
2018-05-25T09:04:42.561Z,101438.16
2018-05-25T09:07:10.303Z,101442.23
2018-05-25T09:09:37.811Z,101438.30
2018-05-25T09:12:05.505Z,101440.09
2018-05-25T09:14:33.026Z,101446.36
2018-05-25T09:17:00.579Z,101440.27
2018-05-25T09:19:28.121Z,101440.92
2018-05-25T09:21:55.739Z,101434.81
2018-05-25T09:24:23.263Z,101434.02
2018-05-25T09:26:50.816Z,101430.58
2018-05-25T09:29:18.530Z,101430.56
2018-05-25T09:31:46.168Z,101423.81
2018-05-25T09:34:13.681Z,101426.87
2018-05-25T09:36:41.237Z,101428.06
2018-05-25T09:39:08.757Z,101429.45
2018-05-25T09:41:36.431Z,101422.39
2018-05-25T09:44:04.101Z,101412.68
2018-05-25T09:46:31.599Z,101423.12
2018-05-25T09:48:59.182Z,101419.03
2018-05-25T09:51:26.722Z,101418.80
2018-05-25T09:53:54.316Z,101423.39
2018-05-25T09:56:21.980Z,101414.03
2018-05-25T09:58:49.768Z,101415.05
2018-05-25T10:01:17.386Z,101413.34
2018-05-25T10:03:45.167Z,101418.44
2018-05-25T10:06:12.772Z,101408.23
2018-05-25T10:08:40.310Z,101410.70
2018-05-25T10:11:07.898Z,101412.47
2018-05-25T10:13:35.545Z,101408.23
2018-05-25T10:16:03.034Z,101408.78
2018-05-25T10:18:30.554Z,101413.39
2018-05-25T10:20:58.099Z,101414.77
2018-05-25T10:23:25.590Z,101420.61
2018-05-25T10:25:53.172Z,101412.74
2018-05-25T10:28:20.739Z,101416.09
2018-05-25T10:30:48.315Z,101404.11
2018-05-25T10:33:15.914Z,101402.66
2018-05-25T10:35:43.458Z,101401.20
2018-05-25T10:38:10.958Z,101398.17
2018-05-25T10:40:38.441Z,101400.94
2018-05-25T10:43:06.093Z,101389.77
2018-05-25T10:45:33.806Z,101396.91
2018-05-25T10:48:01.449Z,101402.17
2018-05-25T10:50:28.931Z,101392.92
2018-05-25T10:52:56.600Z,101393.16
2018-05-25T10:55:24.247Z,101390.24
2018-05-25T10:57:51.830Z,101383.34
2018-05-25T11:00:19.438Z,101397.41
2018-05-25T11:02:47.123Z,101386.10
2018-05-25T11:05:14.714Z,101379.14
2018-05-25T11:07:42.308Z,101378.66
2018-05-25T11:10:09.956Z,101382.64
2018-05-25T11:12:38.286Z,101369.06
2018-05-25T11:15:05.852Z,101367.62
2018-05-25T11:17:33.381Z,101375.20
2018-05-25T11:20:00.917Z,101371.77
2018-05-25T11:22:28.453Z,101366.00
2018-05-25T11:24:56.058Z,101370.37
2018-05-25T11:27:23.598Z,101364.42
2018-05-25T11:29:51.107Z,101359.20
2018-05-25T11:32:18.851Z,101357.14
2018-05-25T11:34:46.476Z,101350.72
2018-05-25T11:37:13.986Z,101351.66
2018-05-25T11:39:41.530Z,101346.67
2018-05-25T11:42:09.121Z,101346.55
2018-05-25T11:44:36.698Z,101348.25
2018-05-25T11:47:04.185Z,101344.48
2018-05-25T11:49:31.760Z,101345.92
2018-05-25T11:51:59.265Z,101335.42
2018-05-25T11:54:26.823Z,101340.41
2018-05-25T11:56:54.486Z,101340.41
2018-05-25T11:59:22.122Z,101347.12
2018-05-25T12:01:49.627Z,101344.66
2018-05-25T12:04:17.206Z,101349.94
2018-05-25T12:06:44.671Z,101343.70
2018-05-25T12:09:12.187Z,101344.83
2018-05-25T12:11:39.673Z,101338.04
2018-05-25T12:14:07.177Z,101333.05
2018-05-25T12:16:34.657Z,101328.77
2018-05-25T12:19:02.190Z,101330.34
2018-05-25T12:21:29.715Z,101334.36
2018-05-25T12:23:57.186Z,101327.94
2018-05-25T12:26:24.659Z,101312.76
2018-05-25T12:28:52.192Z,101319.23
2018-05-25T12:31:19.699Z,101330.09
2018-05-25T12:33:47.217Z,101328.70
2018-05-25T12:36:14.769Z,101319.52
2018-05-25T12:38:42.298Z,101317.73
2018-05-25T12:41:09.747Z,101322.69
2018-05-25T12:43:37.238Z,101313.35
2018-05-25T12:46:04.722Z,101318.84
2018-05-25T12:48:32.218Z,101312.31
2018-05-25T12:50:59.697Z,101312.67
2018-05-25T12:53:27.234Z,101307.52
2018-05-25T12:55:54.700Z,101308.09
2018-05-25T12:58:22.191Z,101301.02
2018-05-25T13:00:49.649Z,101303.93
2018-05-25T13:03:17.135Z,101295.44
2018-05-25T13:05:44.763Z,101298.15
2018-05-25T13:08:12.216Z,101293.80
2018-05-25T13:10:39.766Z,101291.50
2018-05-25T13:13:07.272Z,101292.32
2018-05-25T13:15:34.887Z,101290.50
2018-05-25T13:18:02.388Z,101286.60
2018-05-25T13:20:29.858Z,101282.21
2018-05-25T13:22:57.407Z,101283.92
2018-05-25T13:25:24.880Z,101283.98
2018-05-25T13:27:52.365Z,101281.28
2018-05-25T13:30:19.866Z,101284.79
2018-05-25T13:32:47.364Z,101283.52
2018-05-25T13:35:14.882Z,101281.10
2018-05-25T13:37:42.360Z,101285.45
2018-05-25T13:40:09.811Z,101290.78
2018-05-25T13:42:37.547Z,101284.31
2018-05-25T13:45:05.053Z,101289.23
2018-05-25T13:47:32.556Z,101287.75
2018-05-25T13:50:00.052Z,101287.17
2018-05-25T13:52:27.525Z,101288.42
2018-05-25T13:54:54.977Z,101288.67
2018-05-25T13:57:22.457Z,101272.95
2018-05-25T13:59:49.922Z,101275.48
2018-05-25T14:02:17.485Z,101276.55
2018-05-25T14:04:44.968Z,101276.45
2018-05-25T14:07:12.446Z,101286.92
2018-05-25T14:09:39.930Z,101281.03
2018-05-25T14:12:07.542Z,101281.09
2018-05-25T14:14:35.038Z,101287.66
2018-05-25T14:17:02.541Z,101276.69
2018-05-25T14:19:30.067Z,101279.98
2018-05-25T14:21:57.552Z,101280.39
2018-05-25T14:24:25.013Z,101278.92
2018-05-25T14:26:52.575Z,101274.91
2018-05-25T14:29:20.075Z,101268.36
2018-05-25T14:31:47.581Z,101267.21
2018-05-25T14:34:15.086Z,101258.64
2018-05-25T14:36:42.563Z,101265.44
2018-05-25T14:39:10.035Z,101259.20
2018-05-25T14:41:37.549Z,101259.92
2018-05-25T14:46:38.935Z,101260.13
2018-05-25T14:49:06.510Z,101260.69
2018-05-25T14:51:33.973Z,101256.34
2018-05-25T14:54:01.492Z,101249.22
2018-05-25T14:56:28.924Z,101254.06
2018-05-25T14:58:56.414Z,101258.16
2018-05-25T15:01:23.928Z,101258.62
2018-05-25T15:03:51.426Z,101269.73
2018-05-25T15:06:18.932Z,101255.72
2018-05-25T15:08:46.426Z,101256.02
2018-05-25T15:11:13.934Z,101247.30
2018-05-25T15:13:41.524Z,101250.16
2018-05-25T15:16:09.005Z,101243.80
2018-05-25T15:18:36.490Z,101246.70
2018-05-25T15:21:03.968Z,101249.35
2018-05-25T15:23:31.469Z,101256.83
2018-05-25T15:25:58.948Z,101251.28
2018-05-25T15:28:26.433Z,101252.48
2018-05-25T15:30:54.084Z,101254.61
2018-05-25T15:33:21.456Z,101242.41
2018-05-25T15:35:48.970Z,101246.39
2018-05-25T15:38:16.443Z,101245.45
2018-05-25T15:40:43.910Z,101245.61
2018-05-25T15:43:11.414Z,101247.66
2018-05-25T15:45:38.977Z,101242.56
2018-05-25T15:48:06.457Z,101250.87
2018-05-25T15:50:33.994Z,101241.04
2018-05-25T15:53:01.503Z,101249.67
2018-05-25T15:55:28.999Z,101251.81
2018-05-25T15:57:56.544Z,101242.40
2018-05-25T16:00:24.002Z,101254.31
2018-05-25T16:02:51.501Z,101245.80
2018-05-25T16:05:19.043Z,101243.49
2018-05-25T16:07:46.543Z,101240.14
2018-05-25T16:10:14.110Z,101237.16
2018-05-25T16:12:41.581Z,101231.58
2018-05-25T16:15:09.040Z,101237.41
2018-05-25T16:17:36.533Z,101235.59
2018-05-25T16:20:04.009Z,101238.84
2018-05-25T16:22:31.490Z,101237.48
2018-05-25T16:24:58.956Z,101238.23
2018-05-25T16:27:26.444Z,101233.38
2018-05-25T16:29:53.913Z,101237.08
2018-05-25T16:32:21.364Z,101234.69
2018-05-25T16:34:48.828Z,101236.36
2018-05-25T16:37:16.459Z,101230.52
2018-05-25T16:39:43.985Z,101225.01
2018-05-25T16:42:11.473Z,101231.62
2018-05-25T16:44:38.975Z,101230.37
2018-05-25T16:47:06.483Z,101227.45
2018-05-25T16:49:33.985Z,101235.95
2018-05-25T16:52:01.518Z,101237.13
2018-05-25T16:54:28.991Z,101234.81
2018-05-25T16:56:56.435Z,101224.27
2018-05-25T16:59:23.959Z,101229.86
2018-05-25T17:01:51.452Z,101233.95
2018-05-25T17:04:18.957Z,101230.81
2018-05-25T17:06:46.422Z,101232.61
2018-05-25T17:09:13.916Z,101237.20
2018-05-25T17:11:41.412Z,101233.45
2018-05-25T17:14:08.900Z,101228.45
2018-05-25T17:16:36.352Z,101232.60
2018-05-25T17:19:03.828Z,101228.64
2018-05-25T17:21:31.364Z,101233.86
2018-05-25T17:23:58.862Z,101230.89
2018-05-25T17:26:26.356Z,101240.95
2018-05-25T17:28:53.844Z,101231.48
2018-05-25T17:31:21.365Z,101242.11
2018-05-25T17:33:48.860Z,101245.12
2018-05-25T17:36:16.313Z,101250.67
2018-05-25T17:38:43.844Z,101250.84
2018-05-25T17:41:11.376Z,101248.94
2018-05-25T17:43:38.940Z,101254.17
2018-05-25T17:46:06.531Z,101257.55
2018-05-25T17:48:34.052Z,101260.76
2018-05-25T17:51:01.567Z,101265.73
2018-05-25T17:53:29.068Z,101267.11
2018-05-25T17:55:56.641Z,101271.89
2018-05-25T17:58:24.147Z,101271.63
2018-05-25T18:00:51.646Z,101269.94
2018-05-25T18:03:19.150Z,101284.30
2018-05-25T18:05:46.660Z,101282.58
2018-05-25T18:08:14.155Z,101282.00
2018-05-25T18:10:41.652Z,101292.23
2018-05-25T18:13:09.151Z,101297.05
2018-05-25T18:15:36.636Z,101303.45
2018-05-25T18:18:04.093Z,101303.45
2018-05-25T18:20:31.565Z,101301.02
2018-05-25T18:22:59.042Z,101301.06
2018-05-25T18:25:26.488Z,101296.99
2018-05-25T18:27:54.971Z,101301.63
2018-05-25T18:30:22.457Z,101309.53
2018-05-25T18:32:50.055Z,101307.13
2018-05-25T18:35:17.546Z,101309.29
2018-05-25T18:37:45.082Z,101311.36
2018-05-25T18:40:12.563Z,101315.72
2018-05-25T18:42:40.050Z,101322.42
2018-05-25T18:45:07.605Z,101325.64
2018-05-25T18:47:35.128Z,101332.30
2018-05-25T18:50:02.595Z,101338.52
2018-05-25T18:52:30.123Z,101344.40
2018-05-25T18:54:57.627Z,101340.92
2018-05-25T18:57:25.237Z,101341.77
2018-05-25T18:59:52.737Z,101350.29
2018-05-25T19:02:20.230Z,101353.84
2018-05-25T19:04:47.774Z,101356.44
2018-05-25T19:07:15.240Z,101356.97
2018-05-25T19:09:42.748Z,101354.05
2018-05-25T19:12:10.241Z,101361.58
2018-05-25T19:14:37.883Z,101359.02
2018-05-25T19:17:05.489Z,101363.81
2018-05-25T19:19:33.051Z,101362.94
2018-05-25T19:22:00.553Z,101365.34
2018-05-25T19:24:28.057Z,101366.36
2018-05-25T19:26:55.580Z,101364.08
2018-05-25T19:29:23.056Z,101362.61
2018-05-25T19:31:50.590Z,101367.09
2018-05-25T19:34:18.060Z,101360.77
2018-05-25T19:36:45.508Z,101365.19
2018-05-25T19:39:12.976Z,101365.92
2018-05-25T19:41:40.453Z,101368.39
2018-05-25T19:44:07.943Z,101375.87
2018-05-25T19:46:35.448Z,101380.22
2018-05-25T19:49:02.908Z,101376.92
2018-05-25T19:51:30.383Z,101382.61
2018-05-25T19:53:57.957Z,101385.41
2018-05-25T19:56:25.515Z,101382.26
2018-05-25T19:58:53.008Z,101387.79
2018-05-25T20:01:20.531Z,101387.95
2018-05-25T20:03:48.030Z,101382.47
2018-05-25T20:06:15.485Z,101383.45
2018-05-25T20:08:43.013Z,101382.33
2018-05-25T20:11:10.521Z,101373.52
2018-05-25T20:13:38.000Z,101384.17
2018-05-25T20:16:05.492Z,101378.25
2018-05-25T20:18:33.019Z,101373.84
2018-05-25T20:21:00.556Z,101372.92
2018-05-25T20:23:28.026Z,101372.66
2018-05-25T20:25:55.588Z,101372.13
2018-05-25T20:28:23.186Z,101375.70
2018-05-25T20:30:50.702Z,101376.12
2018-05-25T20:33:18.206Z,101368.02
2018-05-25T20:35:45.667Z,101376.01
2018-05-25T20:38:13.224Z,101380.30
2018-05-25T20:40:41.054Z,101389.95
2018-05-25T20:43:08.562Z,101380.17
2018-05-25T20:45:36.055Z,101375.08
2018-05-25T20:48:03.542Z,101379.89
2018-05-25T20:50:31.069Z,101388.17
2018-05-25T20:52:58.570Z,101387.77
2018-05-25T20:55:26.146Z,101389.97
2018-05-25T20:57:53.658Z,101387.78
2018-05-25T21:00:21.167Z,101398.50
2018-05-25T21:02:48.654Z,101399.22
2018-05-25T21:05:16.168Z,101404.44
2018-05-25T21:07:43.635Z,101401.28
2018-05-25T21:10:11.305Z,101400.88
2018-05-25T21:12:38.803Z,101415.61
2018-05-25T21:15:06.422Z,101408.28
2018-05-25T21:17:33.970Z,101407.32
2018-05-25T21:20:01.466Z,101416.84
2018-05-25T21:22:28.949Z,101413.61
2018-05-25T21:24:56.500Z,101417.73
2018-05-25T21:27:23.964Z,101419.27
2018-05-25T21:29:51.569Z,101417.06
2018-05-25T21:32:19.087Z,101419.11
2018-05-25T21:34:46.553Z,101418.70
2018-05-25T21:37:14.162Z,101425.33
2018-05-25T21:39:41.637Z,101422.57
2018-05-25T21:42:09.141Z,101432.20
2018-05-25T21:44:36.658Z,101429.71
2018-05-25T21:47:04.138Z,101428.11
2018-05-25T21:49:31.619Z,101427.55
2018-05-25T21:51:59.177Z,101424.39
2018-05-25T21:54:26.693Z,101426.06
2018-05-25T21:56:54.187Z,101418.48
2018-05-25T21:59:21.748Z,101419.12
2018-05-25T22:01:49.268Z,101424.21
2018-05-25T22:04:16.753Z,101416.77
2018-05-25T22:06:44.465Z,101419.52
2018-05-25T22:09:12.444Z,101424.59
2018-05-25T22:11:39.943Z,101429.13
2018-05-25T22:14:07.569Z,101429.08
2018-05-25T22:16:35.134Z,101440.47
2018-05-25T22:19:02.500Z,101440.87
2018-05-25T22:21:29.973Z,101436.45
2018-05-25T22:23:57.453Z,101434.78
2018-05-25T22:26:24.969Z,101436.95
2018-05-25T22:28:52.419Z,101438.47
2018-05-25T22:31:19.984Z,101437.89
2018-05-25T22:33:47.453Z,101435.27
2018-05-25T22:36:14.947Z,101438.52
2018-05-25T22:38:42.654Z,101432.91
2018-05-25T22:41:10.132Z,101428.86
2018-05-25T22:43:49.353Z,101436.02
2018-05-25T22:46:28.682Z,101424.46
2018-05-25T22:49:08.390Z,101425.12
2018-05-25T22:51:47.626Z,101423.08
2018-05-25T22:54:28.553Z,101420.16
2018-05-25T22:56:56.020Z,101423.72
2018-05-25T22:59:23.544Z,101427.59
2018-05-25T23:01:51.075Z,101429.78
2018-05-25T23:04:18.543Z,101433.94
2018-05-25T23:06:45.999Z,101429.53
2018-05-25T23:09:13.517Z,101432.94
2018-05-25T23:11:41.034Z,101429.19
2018-05-25T23:14:08.491Z,101425.45
2018-05-25T23:16:35.953Z,101422.52
2018-05-25T23:19:03.462Z,101422.36
2018-05-25T23:21:30.984Z,101428.39
2018-05-25T23:23:58.499Z,101433.87
2018-05-25T23:26:25.965Z,101428.27
2018-05-25T23:28:53.488Z,101430.98
2018-05-25T23:31:21.008Z,101431.67
2018-05-25T23:33:48.489Z,101433.84
2018-05-25T23:36:15.975Z,101430.56
2018-05-25T23:38:43.484Z,101429.35
2018-05-25T23:41:10.991Z,101429.51
2018-05-25T23:43:38.511Z,101426.17
2018-05-25T23:46:06.075Z,101424.22
2018-05-25T23:48:33.535Z,101419.63
2018-05-25T23:51:01.049Z,101432.71
2018-05-25T23:53:28.576Z,101429.70
2018-05-25T23:55:56.129Z,101435.17
2018-05-25T23:58:23.638Z,101435.59
